ADDS METAR Data INFO
IDs: Format: Raw Decoded Include TAF

Data at: 0934 UTC 17 Oct 2017

KLXT 170853Z AUTO 20010KT 10SM CLR 11/05 A3023 RMK AO2 SLP232 T01110050 56006
KLXT 170753Z AUTO 20009KT 10SM CLR 12/05 A3024 RMK AO2 SLP236 T01170050
KLXT 170653Z AUTO 20010KT 10SM CLR 12/06 A3023 RMK AO2 SLP235 T01170056
KLXT 170553Z AUTO 22009KT 10SM CLR 12/06 A3024 RMK AO2 SLP239 T01170056 10156 20117 402000061 55007
KLXT 170453Z AUTO 20011KT 10SM CLR 12/06 A3024 RMK AO2 SLP239 T01220056
KLXT 170353Z AUTO 20010KT 10SM CLR 13/06 A3027 RMK AO2 SLP248 T01280056
KLXT 170253Z AUTO 20009KT 10SM CLR 13/06 A3027 RMK AO2 SLP249 T01280061 53003
KLXT 170153Z AUTO 19008KT 10SM CLR 14/06 A3026 RMK AO2 SLP247 T01390056
KLXT 170053Z AUTO 19008KT 10SM CLR 14/06 A3026 RMK AO2 SLP248 T01440056
KLXT 162353Z AUTO 19007KT 10SM CLR 16/06 A3026 RMK AO2 SLP247 T01610056 10200 20156 55010
KLXT 162253Z AUTO 21009KT 10SM CLR 19/05 A3026 RMK AO2 SLP246 T01890050
KLXT 162153Z AUTO 19011KT 10SM CLR 20/05 A3027 RMK AO2 SLP250 T02000050
KLXT 162053Z AUTO 23009KT 10SM CLR 20/04 A3029 RMK AO2 SLP256 T02000044 56029
KLXT 161953Z AUTO 26007KT 10SM CLR 20/04 A3031 RMK AO2 SLP263 T02000044
KLXT 161853Z AUTO 22009KT 10SM CLR 19/04 A3034 RMK AO2 SLP273 T01940039
KLXT 161753Z AUTO 21008KT 10SM CLR 19/04 A3038 RMK AO2 SLP286 T01890039 10189 20061 58014
KLXT 161653Z AUTO 25006KT 10SM CLR 17/04 A3040 RMK AO2 SLP294 T01720044
KLXT 161553Z AUTO 26006KT 10SM CLR 15/04 A3041 RMK AO2 SLP298 T01500044
KLXT 161453Z AUTO 25006KT 10SM CLR 12/06 A3042 RMK AO2 SLP302 T01220056 53008
KLXT 161353Z AUTO 24005KT 10SM CLR 09/05 A3041 RMK AO2 SLP299 T00890050
KLXT 161253Z AUTO 23006KT 10SM CLR 06/04 A3040 RMK AO2 SLP297 T00610039
KLXT 161153Z AUTO 23006KT 10SM CLR 06/03 A3039 RMK AO2 SLP294 T00610033 10078 20061 53005
KLXT 161053Z AUTO 23006KT 10SM CLR 06/03 A3039 RMK AO2 SLP291 T00610028
KLXT 160953Z AUTO 22004KT 10SM CLR 07/03 A3037 RMK AO2 SLP287 T00670028
KLXT 160853Z AUTO 23004KT 10SM CLR 07/03 A3038 RMK AO2 SLP288 T00670033 50002
KLXT 160753Z AUTO 22004KT 10SM CLR 07/04 A3038 RMK AO2 SLP290 T00720039
KLXT 160653Z AUTO 22003KT 10SM CLR 08/04 A3038 RMK AO2 SLP288 T00780044
KLXT 160553Z AUTO 23003KT 10SM CLR 08/04 A3037 RMK AO2 SLP286 T00780039 10128 20078 401610078 58001
KLXT 160453Z AUTO 21003KT 10SM CLR 08/04 A3037 RMK AO2 SLP287 T00830039
KLXT 160353Z AUTO 00000KT 10SM CLR 10/03 A3038 RMK AO2 SLP288 T01000033
KLXT 160253Z AUTO 29003KT 10SM CLR 10/03 A3037 RMK AO2 SLP287 T01000033 51013
KLXT 160153Z AUTO 28004KT 10SM CLR 11/03 A3037 RMK AO2 SLP286 T01060033
KLXT 160053Z AUTO 29003KT 10SM CLR 11/03 A3035 RMK AO2 SLP281 T01110028
KLXT 152353Z AUTO 30005KT 10SM CLR 12/03 A3034 RMK AO2 SLP274 T01220028 10161 20122 53002
KLXT 152253Z AUTO 29009KT 10SM CLR 15/03 A3033 RMK AO2 SLP271 T01500028
KLXT 152153Z AUTO 30009KT 9SM CLR 16/04 A3033 RMK AO2 SLP269 T01560044